Time;durP1;ratioP1;P1;durP2;ratioP2;P2;SDS_P1;SDS_P2;PMS_P1;PMS_P2;Temp;Humidity;BMP_temperature;BMP_pressure;BME280_temperature;BME280_humidity;BME280_pressure;Samples;Min_cycle;Max_cycle;Signal;HPM_P1;HPM_P2
2023/11/21 00:00:14;;;;;;;16.25;5.28;;;8.30;99.90;;;;;;5045487;28;20029;-52
2023/11/21 00:02:40;;;;;;;12.98;5.15;;;8.30;99.90;;;;;;5046417;28;20442;-54
2023/11/21 00:05:10;;;;;;;10.85;5.80;;;8.30;99.90;;;;;;5046553;28;20026;-49
2023/11/21 00:07:38;;;;;;;16.80;6.80;;;8.30;99.90;;;;;;5046579;28;20029;-49
2023/11/21 00:10:10;;;;;;;15.05;6.32;;;8.30;99.90;;;;;;5037281;28;20029;-52
2023/11/21 00:12:37;;;;;;;9.57;5.45;;;8.20;99.90;;;;;;5046490;28;20042;-52
2023/11/21 00:15:05;;;;;;;12.15;5.63;;;8.20;99.90;;;;;;5046421;28;20510;-54
2023/11/21 00:17:31;;;;;;;9.52;5.10;;;8.20;99.90;;;;;;5046218;28;20072;-53
2023/11/21 00:19:56;;;;;;;12.02;4.63;;;8.20;99.90;;;;;;5045917;28;20030;-53
2023/11/21 00:22:22;;;;;;;9.25;5.22;;;8.10;99.90;;;;;;5046476;28;20029;-52
2023/11/21 00:24:48;;;;;;;9.25;5.05;;;8.20;99.90;;;;;;5046194;28;20447;-52
2023/11/21 00:27:14;;;;;;;10.90;5.38;;;8.10;99.90;;;;;;5046024;28;20026;-51
2023/11/21 00:29:40;;;;;;;12.80;5.43;;;8.10;99.90;;;;;;5046436;28;20044;-51
2023/11/21 00:32:06;;;;;;;8.93;4.88;;;8.10;99.90;;;;;;5046332;28;20025;-51
2023/11/21 00:34:32;;;;;;;11.18;4.80;;;8.10;99.90;;;;;;5045355;28;20056;-54
2023/11/21 00:36:58;;;;;;;14.50;5.20;;;8.10;99.90;;;;;;5046286;28;20030;-53
2023/11/21 00:39:24;;;;;;;9.85;4.43;;;8.10;99.90;;;;;;5045783;28;20029;-51
2023/11/21 00:41:51;;;;;;;13.77;5.22;;;8.10;99.90;;;;;;5046075;28;20403;-54
2023/11/21 00:44:16;;;;;;;12.73;5.32;;;8.10;99.90;;;;;;5044491;28;20022;-52
2023/11/21 00:46:42;;;;;;;11.93;5.50;;;8.10;99.90;;;;;;5039554;28;20037;-54
2023/11/21 00:49:07;;;;;;;9.10;5.00;;;8.10;99.90;;;;;;5044954;28;20029;-52
2023/11/21 00:51:33;;;;;;;10.73;5.15;;;8.10;99.90;;;;;;5045157;28;20021;-53
2023/11/21 00:53:59;;;;;;;8.88;4.78;;;8.10;99.90;;;;;;5041579;28;20056;-66
2023/11/21 00:56:25;;;;;;;11.32;5.07;;;8.00;99.90;;;;;;5046100;28;20080;-53
2023/11/21 00:58:52;;;;;;;11.05;5.53;;;8.00;99.90;;;;;;5045912;28;20026;-54
2023/11/21 01:01:18;;;;;;;9.82;6.13;;;8.00;99.90;;;;;;5044973;28;20030;-52
2023/11/21 01:03:46;;;;;;;11.23;5.05;;;8.00;99.90;;;;;;5044080;28;20029;-53
2023/11/21 01:06:12;;;;;;;8.32;4.88;;;8.00;99.90;;;;;;5045380;28;20025;-51
2023/11/21 01:08:37;;;;;;;8.93;4.65;;;8.00;99.90;;;;;;5045603;28;20104;-51
2023/11/21 01:11:04;;;;;;;7.97;4.45;;;8.00;99.90;;;;;;5045840;28;20041;-53
2023/11/21 01:13:30;;;;;;;7.68;4.68;;;7.90;99.90;;;;;;5045684;28;20056;-62
2023/11/21 01:15:56;;;;;;;9.40;3.60;;;7.90;99.90;;;;;;5045213;28;20562;-53
2023/11/21 01:18:25;;;;;;;11.18;5.03;;;7.90;99.90;;;;;;5045088;28;20029;-51
2023/11/21 01:20:52;;;;;;;14.02;4.68;;;7.90;99.90;;;;;;5045557;28;20052;-51
2023/11/21 01:23:18;;;;;;;7.05;3.38;;;7.90;99.90;;;;;;5045164;28;20025;-51
2023/11/21 01:25:44;;;;;;;10.35;5.30;;;7.90;99.90;;;;;;5045649;28;20101;-53
2023/11/21 01:28:09;;;;;;;6.88;4.05;;;7.90;99.90;;;;;;5045753;28;20022;-50
2023/11/21 01:30:35;;;;;;;10.13;5.10;;;7.90;99.90;;;;;;5045575;28;20021;-51
2023/11/21 01:33:01;;;;;;;6.85;3.90;;;8.00;99.90;;;;;;5045449;28;20022;-53
2023/11/21 01:35:26;;;;;;;7.85;4.53;;;8.00;99.90;;;;;;5045235;28;20022;-50
2023/11/21 01:37:52;;;;;;;7.47;4.40;;;8.00;99.90;;;;;;5045277;28;20122;-53
2023/11/21 01:40:18;;;;;;;8.70;4.70;;;8.10;99.90;;;;;;5045302;28;20021;-52
2023/11/21 01:42:44;;;;;;;8.43;4.38;;;8.10;99.90;;;;;;5043954;28;20153;-53
2023/11/21 01:45:12;;;;;;;6.07;3.95;;;8.10;99.90;;;;;;5045615;28;20081;-53
2023/11/21 01:47:39;;;;;;;12.93;5.22;;;8.10;99.90;;;;;;5044824;28;20017;-54
2023/11/21 01:50:07;;;;;;;7.70;2.83;;;8.20;99.90;;;;;;5045704;28;20036;-56
2023/11/21 01:52:35;;;;;;;6.10;3.90;;;8.20;99.90;;;;;;5043692;28;20026;-58
2023/11/21 01:55:02;;;;;;;11.43;4.13;;;8.30;99.90;;;;;;5045342;28;20494;-52
2023/11/21 01:57:28;;;;;;;9.77;5.05;;;8.30;99.90;;;;;;5045126;28;20052;-56
2023/11/21 01:59:54;;;;;;;9.00;4.18;;;8.30;99.90;;;;;;5045731;28;20056;-47
2023/11/21 02:02:20;;;;;;;11.40;4.20;;;8.40;99.90;;;;;;5046707;28;20097;-53
2023/11/21 02:04:46;;;;;;;12.85;5.00;;;8.50;99.90;;;;;;5048487;28;20032;-52
2023/11/21 02:07:12;;;;;;;9.55;4.80;;;8.50;99.90;;;;;;5047997;28;20029;-54
2023/11/21 02:09:42;;;;;;;8.38;4.05;;;8.60;99.90;;;;;;5049159;28;20116;-54
2023/11/21 02:12:10;;;;;;;11.43;3.80;;;8.60;99.90;;;;;;5047116;28;20046;-52
2023/11/21 02:14:36;;;;;;;9.23;4.15;;;8.60;99.90;;;;;;5048543;28;20117;-52
2023/11/21 02:17:03;;;;;;;7.75;3.70;;;8.70;99.90;;;;;;5046093;28;20026;-52
2023/11/21 02:19:30;;;;;;;8.00;4.35;;;8.70;99.90;;;;;;5048983;28;20475;-51
2023/11/21 02:22:03;;;;;;;6.95;3.55;;;8.70;99.90;;;;;;5048036;28;20052;-54
2023/11/21 02:24:29;;;;;;;8.80;4.03;;;8.80;99.90;;;;;;5048839;28;20013;-53
2023/11/21 02:26:54;;;;;;;9.20;4.60;;;8.80;99.90;;;;;;5048416;28;20075;-54
2023/11/21 02:29:39;;;;;;;11.90;4.63;;;8.80;99.90;;;;;;5048673;28;20026;-51
2023/11/21 02:32:05;;;;;;;9.93;4.05;;;8.90;99.90;;;;;;5047875;28;20464;-53
2023/11/21 02:34:31;;;;;;;8.07;4.20;;;8.90;99.90;;;;;;5048371;28;20028;-54
2023/11/21 02:36:57;;;;;;;9.65;4.40;;;8.90;99.90;;;;;;5048115;28;20467;-54
2023/11/21 02:39:23;;;;;;;6.95;4.18;;;9.00;99.90;;;;;;5048314;28;20089;-53
2023/11/21 02:41:50;;;;;;;7.07;4.70;;;9.00;99.90;;;;;;5048285;28;20040;-52
2023/11/21 02:44:15;;;;;;;11.63;4.50;;;9.00;99.90;;;;;;5048273;28;20013;-51
2023/11/21 02:46:41;;;;;;;7.70;3.72;;;9.00;99.90;;;;;;5048207;28;20075;-53
2023/11/21 02:49:07;;;;;;;7.85;4.50;;;9.00;99.90;;;;;;5048288;28;20029;-54
2023/11/21 02:51:33;;;;;;;12.13;4.43;;;9.00;99.90;;;;;;5047769;28;20052;-55
2023/11/21 02:54:02;;;;;;;8.00;4.63;;;9.00;99.90;;;;;;5047674;28;20053;-54
2023/11/21 02:56:28;;;;;;;17.00;4.88;;;9.00;99.90;;;;;;5047915;28;20029;-52
2023/11/21 02:58:57;;;;;;;9.00;4.55;;;9.10;99.90;;;;;;5046850;28;20029;-58
2023/11/21 03:01:27;;;;;;;8.18;4.05;;;9.10;99.90;;;;;;5047366;28;20021;-49
2023/11/21 03:03:53;;;;;;;8.85;4.53;;;9.10;99.90;;;;;;5047944;28;20096;-52
2023/11/21 03:06:19;;;;;;;10.82;4.28;;;9.10;99.90;;;;;;5047565;28;20029;-53
2023/11/21 03:08:45;;;;;;;10.93;4.18;;;9.10;99.90;;;;;;5047361;28;20506;-53
2023/11/21 03:11:12;;;;;;;12.15;4.00;;;9.10;99.90;;;;;;5047255;28;20022;-53
2023/11/21 03:13:41;;;;;;;7.10;4.00;;;9.10;99.90;;;;;;5047392;28;20045;-54
2023/11/21 03:16:11;;;;;;;9.80;3.88;;;9.10;99.90;;;;;;5045796;28;20026;-54
2023/11/21 03:18:37;;;;;;;10.52;4.63;;;9.10;99.90;;;;;;5047734;28;20032;-54
2023/11/21 03:21:10;;;;;;;6.85;4.00;;;9.10;99.90;;;;;;5046481;28;20018;-51
2023/11/21 03:23:36;;;;;;;10.25;4.40;;;9.10;99.90;;;;;;5047153;28;20037;-54
2023/11/21 03:26:02;;;;;;;9.98;3.85;;;9.10;99.90;;;;;;5047464;28;20030;-51
2023/11/21 03:28:28;;;;;;;10.52;4.95;;;9.10;99.90;;;;;;5047572;28;20028;-52
2023/11/21 03:30:54;;;;;;;13.30;4.78;;;9.10;99.90;;;;;;5047574;28;20045;-53
2023/11/21 03:33:20;;;;;;;8.75;4.22;;;9.20;99.90;;;;;;5046910;28;20033;-54
2023/11/21 03:35:46;;;;;;;7.22;3.90;;;9.20;99.90;;;;;;5046960;28;20380;-54
2023/11/21 03:38:12;;;;;;;10.05;4.43;;;9.10;99.90;;;;;;5047009;28;20029;-54
2023/11/21 03:40:39;;;;;;;8.77;4.20;;;9.20;99.90;;;;;;5047326;28;20108;-51
2023/11/21 03:43:05;;;;;;;9.10;4.93;;;9.20;99.90;;;;;;5046854;28;20575;-48
2023/11/21 03:45:30;;;;;;;7.70;4.60;;;9.20;99.90;;;;;;5047337;28;20017;-51
2023/11/21 03:47:56;;;;;;;9.18;4.10;;;9.30;99.90;;;;;;5047157;28;20022;-54
2023/11/21 03:50:22;;;;;;;11.57;4.97;;;9.30;99.90;;;;;;5046848;28;20024;-51
2023/11/21 03:52:47;;;;;;;9.10;4.50;;;9.30;99.90;;;;;;5046405;28;20089;-53
2023/11/21 03:55:14;;;;;;;8.60;4.50;;;9.30;99.90;;;;;;5046136;28;20045;-55
2023/11/21 03:57:40;;;;;;;12.13;4.00;;;9.30;99.90;;;;;;5047069;28;20389;-51
2023/11/21 04:00:08;;;;;;;9.68;4.40;;;9.30;99.90;;;;;;5046619;28;20034;-56
2023/11/21 04:02:34;;;;;;;12.90;4.82;;;9.40;99.90;;;;;;5046353;28;20515;-52
2023/11/21 04:05:00;;;;;;;13.73;4.75;;;9.40;99.90;;;;;;5046891;28;20018;-54
2023/11/21 04:07:25;;;;;;;9.27;4.72;;;9.40;99.90;;;;;;5046327;28;20022;-54
2023/11/21 04:09:51;;;;;;;12.57;5.25;;;9.40;99.90;;;;;;5046390;28;20025;-54
2023/11/21 04:12:17;;;;;;;16.52;5.25;;;9.40;99.90;;;;;;5046516;28;20064;-53
2023/11/21 04:14:42;;;;;;;8.45;4.57;;;9.40;99.90;;;;;;5046557;28;20482;-52
2023/11/21 04:17:09;;;;;;;7.03;4.25;;;9.40;99.90;;;;;;5046469;28;20026;-52
2023/11/21 04:19:34;;;;;;;13.98;4.72;;;9.40;99.90;;;;;;5046108;28;20025;-51
2023/11/21 04:22:00;;;;;;;9.15;4.07;;;9.40;99.90;;;;;;5046461;28;20170;-52
2023/11/21 04:24:26;;;;;;;10.20;4.78;;;9.50;99.90;;;;;;5044878;28;20034;-50
2023/11/21 04:26:51;;;;;;;10.15;4.60;;;9.50;99.90;;;;;;5045977;28;20021;-48
2023/11/21 04:29:17;;;;;;;16.85;5.13;;;9.60;99.90;;;;;;5046194;28;20037;-49
2023/11/21 04:31:42;;;;;;;7.43;4.72;;;9.50;99.90;;;;;;5046485;28;20013;-51
2023/11/21 04:34:08;;;;;;;11.13;4.35;;;9.60;99.90;;;;;;5045567;28;20396;-48
2023/11/21 04:36:34;;;;;;;10.57;4.63;;;9.60;99.90;;;;;;5046308;28;20060;-51
2023/11/21 04:39:00;;;;;;;13.07;4.30;;;9.50;99.90;;;;;;5045773;28;20028;-51
2023/11/21 04:41:26;;;;;;;6.22;3.88;;;9.60;99.90;;;;;;5045369;28;20025;-50
2023/11/21 04:43:52;;;;;;;11.32;4.45;;;9.60;99.90;;;;;;5046134;28;20378;-52
2023/11/21 04:46:18;;;;;;;7.70;4.22;;;9.60;99.90;;;;;;5046161;28;20017;-50
2023/11/21 04:48:43;;;;;;;8.63;3.25;;;9.60;99.90;;;;;;5045825;28;20026;-50
2023/11/21 04:51:11;;;;;;;6.80;3.70;;;9.70;99.90;;;;;;5045912;28;20043;-52
2023/11/21 04:53:37;;;;;;;11.70;4.60;;;9.70;99.90;;;;;;5045553;28;20024;-53
2023/11/21 04:56:03;;;;;;;10.82;4.43;;;9.70;99.90;;;;;;5045511;28;20104;-51
2023/11/21 04:58:29;;;;;;;11.23;3.97;;;9.80;99.90;;;;;;5045899;28;20017;-50
2023/11/21 05:00:54;;;;;;;17.17;5.00;;;9.80;99.90;;;;;;5045612;28;20029;-51
2023/11/21 05:03:20;;;;;;;15.75;4.63;;;9.80;99.90;;;;;;5044871;28;20029;-52
2023/11/21 05:05:46;;;;;;;13.80;4.70;;;9.80;99.90;;;;;;5045851;28;20017;-57
2023/11/21 05:08:11;;;;;;;13.95;4.38;;;9.80;99.90;;;;;;5045673;28;20024;-48
2023/11/21 05:10:39;;;;;;;9.75;3.72;;;9.80;99.90;;;;;;5045603;28;20049;-49
2023/11/21 05:13:09;;;;;;;11.43;3.58;;;9.90;99.90;;;;;;5045650;28;20049;-50
2023/11/21 05:15:35;;;;;;;12.77;4.18;;;9.90;99.90;;;;;;5045925;28;20021;-51
2023/11/21 05:18:00;;;;;;;7.97;4.05;;;10.00;99.90;;;;;;5044259;28;20036;-51
2023/11/21 05:20:26;;;;;;;13.02;4.15;;;10.00;99.90;;;;;;5045095;28;20026;-51
2023/11/21 05:22:52;;;;;;;9.43;4.07;;;10.00;99.90;;;;;;5045573;28;20033;-49
2023/11/21 05:25:20;;;;;;;9.32;4.43;;;10.00;99.90;;;;;;5045049;28;20103;-51
2023/11/21 05:27:47;;;;;;;10.75;3.80;;;10.00;99.90;;;;;;5045732;28;20025;-52
2023/11/21 05:30:14;;;;;;;12.02;3.50;;;10.00;99.90;;;;;;5045394;28;20030;-52
2023/11/21 05:32:42;;;;;;;8.70;4.18;;;10.00;99.90;;;;;;5045697;28;20085;-49
2023/11/21 05:35:11;;;;;;;8.70;3.67;;;10.10;99.90;;;;;;5046224;28;20033;-50
2023/11/21 05:37:41;;;;;;;11.40;4.07;;;10.10;99.90;;;;;;5049740;28;20109;-50
2023/11/21 05:40:07;;;;;;;8.73;3.95;;;10.10;99.90;;;;;;5048286;28;20025;-51
2023/11/21 05:42:34;;;;;;;9.55;4.30;;;10.10;99.90;;;;;;5049396;28;20030;-50
2023/11/21 05:45:09;;;;;;;8.85;4.15;;;10.10;99.90;;;;;;5049348;28;20029;-49
2023/11/21 05:47:40;;;;;;;12.15;4.63;;;10.10;99.90;;;;;;5049571;28;20041;-49
2023/11/21 05:50:10;;;;;;;9.50;4.60;;;10.10;99.90;;;;;;5048778;28;20022;-49
2023/11/21 05:52:36;;;;;;;9.05;3.75;;;10.10;99.90;;;;;;5049150;28;20052;-51
2023/11/21 05:55:02;;;;;;;6.85;3.83;;;10.10;99.90;;;;;;5048843;28;20057;-53
2023/11/21 05:57:28;;;;;;;9.10;4.55;;;10.20;99.90;;;;;;5049165;28;20032;-50
2023/11/21 05:59:53;;;;;;;10.27;3.78;;;10.20;99.90;;;;;;5048617;28;20030;-59
2023/11/21 06:02:19;;;;;;;12.85;3.67;;;10.30;99.90;;;;;;5049002;28;20108;-48
2023/11/21 06:04:44;;;;;;;8.48;4.00;;;10.30;99.90;;;;;;5048719;28;20017;-52
2023/11/21 06:07:10;;;;;;;14.15;4.50;;;10.30;99.90;;;;;;5048986;28;20021;-51
2023/11/21 06:09:37;;;;;;;16.70;4.85;;;10.30;99.90;;;;;;5048313;28;20483;-51
2023/11/21 06:12:04;;;;;;;13.07;4.75;;;10.30;99.90;;;;;;5048841;28;20064;-50
2023/11/21 06:14:30;;;;;;;16.23;5.95;;;10.30;99.90;;;;;;5048584;28;20034;-47
2023/11/21 06:16:57;;;;;;;11.55;4.95;;;10.30;99.90;;;;;;5048847;28;20024;-50
2023/11/21 06:19:23;;;;;;;13.00;6.23;;;10.30;99.90;;;;;;5048493;28;20028;-52
2023/11/21 06:21:49;;;;;;;14.52;4.85;;;10.30;99.90;;;;;;5048666;28;20029;-49
2023/11/21 06:24:15;;;;;;;14.63;5.30;;;10.30;99.90;;;;;;5047944;28;20024;-49
2023/11/21 06:26:41;;;;;;;11.13;5.10;;;10.30;99.90;;;;;;5048395;28;20022;-51
2023/11/21 06:29:07;;;;;;;15.00;6.03;;;10.30;99.90;;;;;;5048670;28;20100;-52
2023/11/21 06:31:32;;;;;;;9.95;5.57;;;10.30;99.90;;;;;;5048592;28;20029;-50
2023/11/21 06:33:59;;;;;;;10.98;4.95;;;10.30;99.90;;;;;;5047965;28;20029;-52
2023/11/21 06:36:26;;;;;;;11.77;5.32;;;10.30;99.90;;;;;;5048296;28;20455;-51
2023/11/21 06:38:52;;;;;;;13.35;6.03;;;10.20;99.90;;;;;;5048057;28;20033;-52
2023/11/21 06:41:18;;;;;;;11.65;5.65;;;10.20;99.90;;;;;;5048136;28;20025;-63
2023/11/21 06:43:46;;;;;;;18.48;4.93;;;10.20;99.90;;;;;;5048090;28;20022;-50
2023/11/21 06:46:16;;;;;;;12.48;4.68;;;10.10;99.90;;;;;;5046649;28;20029;-52
2023/11/21 06:48:45;;;;;;;11.10;5.55;;;10.20;99.90;;;;;;5048024;28;20014;-48
2023/11/21 06:51:10;;;;;;;10.52;4.97;;;10.20;99.90;;;;;;5048239;28;20017;-52
2023/11/21 06:53:37;;;;;;;12.25;5.35;;;10.30;99.90;;;;;;5047765;28;20108;-53
2023/11/21 06:56:03;;;;;;;18.13;6.20;;;10.30;99.90;;;;;;5047857;28;20034;-65
2023/11/21 06:58:28;;;;;;;15.30;5.30;;;10.40;99.90;;;;;;5048275;28;20032;-45
2023/11/21 07:00:54;;;;;;;8.73;4.75;;;10.40;99.90;;;;;;5047668;28;20029;-50
2023/11/21 07:03:20;;;;;;;13.20;5.13;;;10.40;99.90;;;;;;5047339;28;20034;-51
2023/11/21 07:05:45;;;;;;;11.85;4.85;;;10.40;99.90;;;;;;5046694;28;20024;-51
2023/11/21 07:08:12;;;;;;;10.95;5.05;;;10.40;99.90;;;;;;5047500;28;20040;-50
2023/11/21 07:10:38;;;;;;;11.93;4.93;;;10.50;99.90;;;;;;5047104;28;20048;-53
2023/11/21 07:13:10;;;;;;;17.35;5.28;;;10.40;99.90;;;;;;5047447;28;20041;-55
2023/11/21 07:15:36;;;;;;;12.05;5.82;;;10.40;99.90;;;;;;5047912;28;20029;-54
2023/11/21 07:18:02;;;;;;;12.07;4.78;;;10.40;99.90;;;;;;5047296;28;20025;-54
2023/11/21 07:20:30;;;;;;;7.38;4.80;;;10.40;99.90;;;;;;5047170;28;20029;-54
2023/11/21 07:22:57;;;;;;;9.30;4.88;;;10.40;99.90;;;;;;5047091;28;20076;-55
2023/11/21 07:25:23;;;;;;;6.57;3.93;;;10.40;99.90;;;;;;5047360;28;20384;-50
2023/11/21 07:27:49;;;;;;;14.52;4.40;;;10.40;99.90;;;;;;5047297;28;20099;-54
2023/11/21 07:30:15;;;;;;;8.15;4.03;;;10.50;99.90;;;;;;5047081;28;20075;-48
2023/11/21 07:32:41;;;;;;;7.93;4.30;;;10.50;99.90;;;;;;5047158;28;20045;-52
2023/11/21 07:35:07;;;;;;;7.40;4.28;;;10.50;99.90;;;;;;5047547;28;20020;-50
2023/11/21 07:37:33;;;;;;;7.45;4.40;;;10.50;99.90;;;;;;5046213;28;20116;-51
2023/11/21 07:39:59;;;;;;;7.55;4.25;;;10.60;99.90;;;;;;5047068;28;20021;-49
2023/11/21 07:42:26;;;;;;;7.88;3.17;;;10.60;99.90;;;;;;5046927;28;20068;-53
2023/11/21 07:44:52;;;;;;;10.67;3.80;;;10.60;99.90;;;;;;5045637;28;20383;-51
2023/11/21 07:47:17;;;;;;;15.38;4.20;;;10.70;99.90;;;;;;5047026;28;20022;-53
2023/11/21 07:49:44;;;;;;;11.10;3.30;;;10.60;99.90;;;;;;5046926;28;20028;-52
2023/11/21 07:52:10;;;;;;;5.85;3.45;;;10.60;99.90;;;;;;5046554;28;20078;-52
2023/11/21 07:54:36;;;;;;;6.20;2.83;;;10.70;99.90;;;;;;5046848;28;20026;-61
2023/11/21 07:57:04;;;;;;;6.93;2.85;;;10.70;99.90;;;;;;5046597;28;20029;-52
2023/11/21 07:59:29;;;;;;;6.00;2.70;;;10.70;99.90;;;;;;5046674;28;20043;-53
2023/11/21 08:01:55;;;;;;;5.25;2.58;;;10.80;99.90;;;;;;5045818;28;20056;-50
2023/11/21 08:04:21;;;;;;;5.78;2.45;;;10.80;99.90;;;;;;5046681;28;20025;-51
2023/11/21 08:06:46;;;;;;;11.45;2.83;;;10.80;99.90;;;;;;5046028;28;20479;-53
2023/11/21 08:09:12;;;;;;;7.70;3.13;;;10.70;99.90;;;;;;5046826;28;20017;-53
2023/11/21 08:11:38;;;;;;;3.28;2.35;;;10.70;99.90;;;;;;5045810;28;20025;-59
2023/11/21 08:14:04;;;;;;;7.35;3.00;;;10.80;99.90;;;;;;5045646;28;20037;-53
2023/11/21 08:16:30;;;;;;;7.10;3.20;;;10.90;99.90;;;;;;5045919;28;20028;-52
2023/11/21 08:18:56;;;;;;;9.75;4.10;;;10.90;99.90;;;;;;5045999;28;20395;-51
2023/11/21 08:21:24;;;;;;;7.55;3.45;;;10.90;99.90;;;;;;5046113;28;20091;-53
2023/11/21 08:23:53;;;;;;;11.27;3.83;;;10.90;99.90;;;;;;5046312;28;20079;-53
2023/11/21 08:26:20;;;;;;;7.40;3.13;;;10.90;99.90;;;;;;5044566;28;20025;-54
2023/11/21 08:28:47;;;;;;;7.50;3.20;;;10.80;99.90;;;;;;5046441;28;20021;-53
2023/11/21 08:31:12;;;;;;;11.02;3.22;;;10.80;99.90;;;;;;5046062;28;20022;-54
2023/11/21 08:33:38;;;;;;;10.23;3.65;;;10.90;99.90;;;;;;5044214;28;20036;-52
2023/11/21 08:36:11;;;;;;;10.43;3.35;;;10.90;99.90;;;;;;5045886;28;20037;-53
2023/11/21 08:38:37;;;;;;;11.38;4.18;;;10.90;99.90;;;;;;5046148;28;20029;-53
2023/11/21 08:41:07;;;;;;;7.97;3.17;;;11.00;99.90;;;;;;5045188;28;20035;-52
2023/11/21 08:43:34;;;;;;;11.10;4.72;;;10.90;99.90;;;;;;5046152;28;20033;-53
2023/11/21 08:46:00;;;;;;;14.95;4.88;;;11.00;99.90;;;;;;5064717;28;20025;-54
2023/11/21 08:48:28;;;;;;;10.57;4.65;;;11.00;99.90;;;;;;5066160;28;20021;-51
2023/11/21 08:50:54;;;;;;;;;;;11.10;99.90;;;;;;5049398;28;20149;-53
2023/11/21 08:53:20;;;;;;;8.25;3.83;;;11.20;99.90;;;;;;5043198;28;19909;-42
2023/11/21 08:55:45;;;;;;;7.47;3.60;;;11.40;99.90;;;;;;5047551;28;20104;-49
2023/11/21 08:58:12;;;;;;;7.75;3.72;;;11.50;99.90;;;;;;5044102;28;20049;-47
2023/11/21 09:00:39;;;;;;;7.72;3.47;;;11.60;99.90;;;;;;5051104;28;20092;-57
2023/11/21 09:03:08;;;;;;;11.40;4.20;;;11.60;99.90;;;;;;5056323;28;20045;-39
2023/11/21 09:05:34;;;;;;;6.00;3.33;;;11.70;99.90;;;;;;5044063;28;20018;-40
2023/11/21 09:08:00;;;;;;;13.82;3.95;;;11.70;99.90;;;;;;5045752;28;20051;-41
2023/11/21 09:10:25;;;;;;;6.68;3.70;;;11.60;99.90;;;;;;5043886;28;20021;-39
2023/11/21 09:12:51;;;;;;;6.63;3.83;;;11.50;99.90;;;;;;5043740;28;20054;-38
2023/11/21 09:15:17;;;;;;;8.98;3.70;;;11.50;99.90;;;;;;5026061;28;20014;-39
2023/11/21 09:17:44;;;;;;;5.30;3.13;;;11.40;99.90;;;;;;5026197;28;20022;-38
2023/11/21 09:20:10;;;;;;;10.77;3.00;;;11.30;99.90;;;;;;5036166;28;20061;-38
2023/11/21 09:22:36;;;;;;;6.72;2.92;;;11.20;99.90;;;;;;5045039;28;20029;-38
2023/11/21 09:25:05;;;;;;;7.35;3.20;;;11.20;99.90;;;;;;5045763;28;20045;-40
2023/11/21 09:27:31;;;;;;;4.80;3.25;;;11.20;99.90;;;;;;5045674;28;20014;-39
2023/11/21 09:29:58;;;;;;;4.78;2.47;;;11.10;99.90;;;;;;5045219;28;20521;-39
2023/11/21 09:32:24;;;;;;;5.32;3.15;;;11.10;99.90;;;;;;5045393;28;20025;-40
2023/11/21 09:34:50;;;;;;;4.80;2.90;;;11.20;99.90;;;;;;5043843;28;20041;-40
2023/11/21 09:37:16;;;;;;;10.00;3.00;;;11.20;99.90;;;;;;5045381;28;20092;-43
2023/11/21 09:39:42;;;;;;;5.07;2.88;;;11.10;99.90;;;;;;5045544;28;20480;-38
2023/11/21 09:42:16;;;;;;;5.97;3.00;;;11.20;99.90;;;;;;5045318;28;20022;-39
2023/11/21 09:44:42;;;;;;;9.68;3.15;;;11.10;99.90;;;;;;5045167;28;20022;-38
2023/11/21 09:47:10;;;;;;;6.65;2.90;;;11.10;99.90;;;;;;5044981;28;20660;-51
2023/11/21 09:49:37;;;;;;;4.35;2.53;;;11.20;99.90;;;;;;5043879;28;20117;-40
2023/11/21 09:52:03;;;;;;;4.85;3.35;;;11.20;99.90;;;;;;5044460;28;20052;-38
2023/11/21 09:54:31;;;;;;;5.53;2.55;;;11.20;99.90;;;;;;5044097;28;20040;-40
2023/11/21 09:56:59;;;;;;;4.53;2.63;;;11.30;99.90;;;;;;5045168;28;20026;-42
2023/11/21 09:59:30;;;;;;;8.65;3.80;;;11.30;99.90;;;;;;5045442;28;20025;-38
2023/11/21 10:01:58;;;;;;;5.38;2.40;;;11.30;99.90;;;;;;5045210;28;20036;-42
2023/11/21 10:04:24;;;;;;;;;;;11.30;99.90;;;;;;5045154;28;20029;-53
2023/11/21 10:06:51;;;;;;;3.70;1.98;;;11.20;99.90;;;;;;5044106;28;19979;-40
2023/11/21 10:09:20;;;;;;;4.35;2.65;;;11.30;99.90;;;;;;5044107;28;20033;-39
2023/11/21 10:11:47;;;;;;;3.45;2.50;;;11.30;99.90;;;;;;5043744;28;20095;-39
2023/11/21 10:14:14;;;;;;;4.88;2.30;;;11.30;99.90;;;;;;5043498;28;20399;-41
2023/11/21 10:16:41;;;;;;;4.07;2.45;;;11.20;99.90;;;;;;5044745;28;20022;-39
2023/11/21 10:19:10;;;;;;;2.97;2.40;;;11.20;99.90;;;;;;5045194;28;20071;-39
2023/11/21 10:21:37;;;;;;;3.55;2.28;;;11.20;99.90;;;;;;5045865;28;20037;-39
2023/11/21 10:24:03;;;;;;;6.45;2.65;;;11.10;99.90;;;;;;5048490;28;20021;-39
2023/11/21 10:26:31;;;;;;;4.22;2.28;;;11.10;99.90;;;;;;5048488;28;20348;-39
2023/11/21 10:29:03;;;;;;;5.82;2.92;;;11.20;99.90;;;;;;5047271;28;20017;-39
2023/11/21 10:31:34;;;;;;;5.80;2.78;;;11.20;99.90;;;;;;5048459;28;20029;-39
2023/11/21 10:34:15;;;;;;;5.30;3.10;;;11.10;99.90;;;;;;5047702;28;20077;-42
2023/11/21 10:36:41;;;;;;;12.65;4.15;;;11.10;99.90;;;;;;5047332;28;20085;-39
2023/11/21 10:39:07;;;;;;;5.22;2.72;;;11.00;99.90;;;;;;5048454;28;20028;-39
2023/11/21 10:41:34;;;;;;;6.07;2.47;;;11.00;99.90;;;;;;5047821;28;20025;-40
2023/11/21 10:43:59;;;;;;;7.65;3.10;;;11.00;99.90;;;;;;5047736;28;20021;-42
2023/11/21 10:46:30;;;;;;;6.85;2.53;;;11.00;99.90;;;;;;5048399;28;20088;-65
2023/11/21 10:48:56;;;;;;;9.25;3.00;;;11.00;99.90;;;;;;5048455;28;20021;-39
2023/11/21 10:51:22;;;;;;;7.85;3.40;;;11.00;99.90;;;;;;5047458;28;20077;-39
2023/11/21 10:53:50;;;;;;;6.35;3.00;;;11.10;99.90;;;;;;5047919;28;20390;-38
2023/11/21 10:56:21;;;;;;;8.80;3.10;;;11.10;99.90;;;;;;5048260;28;20028;-38
2023/11/21 10:58:52;;;;;;;7.28;2.97;;;11.10;99.90;;;;;;5048343;28;20033;-42
2023/11/21 11:01:20;;;;;;;7.32;2.72;;;11.10;99.90;;;;;;5045881;28;20021;-40
2023/11/21 11:03:47;;;;;;;7.93;3.83;;;11.10;99.90;;;;;;5044435;28;20029;-42
2023/11/21 11:06:14;;;;;;;5.05;2.78;;;11.10;99.90;;;;;;5047883;28;20107;-42
2023/11/21 11:08:40;;;;;;;8.27;4.28;;;11.10;99.90;;;;;;5047960;28;20040;-38
2023/11/21 11:11:07;;;;;;;8.80;3.20;;;11.10;99.90;;;;;;5047582;28;20075;-41
2023/11/21 11:13:33;;;;;;;5.18;3.33;;;11.00;99.90;;;;;;5047414;28;20053;-39
2023/11/21 11:16:01;;;;;;;6.72;3.33;;;11.00;99.90;;;;;;5030022;28;20065;-44
2023/11/21 11:18:29;;;;;;;;;;;11.00;99.90;;;;;;5047452;28;20025;-42
2023/11/21 11:21:20;;;;;;;8.10;3.85;;;11.00;99.90;;;;;;5047681;28;19915;-41
2023/11/21 11:24:27;;;;;;;14.32;4.10;;;11.00;99.90;;;;;;5047710;28;20036;-39
2023/11/21 11:26:53;;;;;;;10.45;4.30;;;11.00;99.90;;;;;;5047079;28;20085;-40
2023/11/21 11:29:31;;;;;;;8.10;3.47;;;11.00;99.90;;;;;;5047157;28;20067;-44
2023/11/21 11:32:25;;;;;;;9.30;3.83;;;11.00;99.90;;;;;;5046875;28;20032;-40
2023/11/21 11:34:59;;;;;;;8.57;4.22;;;11.00;99.90;;;;;;5046812;28;21480;-40
2023/11/21 11:37:25;;;;;;;10.75;3.25;;;11.00;99.90;;;;;;5047187;28;20021;-41
2023/11/21 11:39:51;;;;;;;13.05;5.13;;;11.00;99.90;;;;;;5047203;28;20021;-40
2023/11/21 11:42:18;;;;;;;11.05;4.15;;;11.00;99.90;;;;;;5047051;28;20097;-40
2023/11/21 11:44:49;;;;;;;8.93;4.07;;;11.00;99.90;;;;;;5047073;28;20048;-40
2023/11/21 11:47:32;;;;;;;8.70;3.78;;;11.00;99.90;;;;;;5045764;28;20056;-41
2023/11/21 11:50:13;;;;;;;16.30;4.55;;;11.10;99.90;;;;;;5046777;28;20029;-40
2023/11/21 11:52:43;;;;;;;11.48;4.18;;;11.20;99.90;;;;;;5047189;28;20049;-38
2023/11/21 11:55:13;;;;;;;10.52;4.47;;;11.10;99.90;;;;;;5045811;28;20033;-39
2023/11/21 11:57:43;;;;;;;9.20;4.55;;;11.20;99.90;;;;;;5045500;28;20026;-39
2023/11/21 12:00:20;;;;;;;11.38;4.22;;;11.20;99.90;;;;;;5044935;28;20075;-39
2023/11/21 12:03:07;;;;;;;8.85;3.83;;;11.20;99.90;;;;;;5032245;28;20033;-42
2023/11/21 12:05:38;;;;;;;8.00;4.45;;;11.30;99.90;;;;;;5036656;28;20037;-42
2023/11/21 12:08:06;;;;;;;7.65;4.40;;;11.30;99.90;;;;;;5045240;28;20018;-39
2023/11/21 12:10:34;;;;;;;16.02;5.72;;;11.30;99.90;;;;;;5046719;28;20028;-40
2023/11/21 12:13:02;;;;;;;13.50;5.38;;;11.40;99.90;;;;;;5045730;28;20122;-39
2023/11/21 12:15:30;;;;;;;12.90;4.95;;;11.40;99.90;;;;;;5045911;28;20021;-40
2023/11/21 12:17:56;;;;;;;11.25;4.70;;;11.30;99.90;;;;;;5045873;28;20026;-40
2023/11/21 12:20:25;;;;;;;10.70;3.90;;;11.30;99.90;;;;;;5046137;28;20021;-39
2023/11/21 12:22:56;;;;;;;10.57;5.15;;;11.20;99.90;;;;;;5044939;28;20040;-39
2023/11/21 12:25:31;;;;;;;9.73;4.63;;;11.20;99.90;;;;;;5046290;28;20048;-40
2023/11/21 12:27:57;;;;;;;11.55;4.70;;;11.20;99.90;;;;;;5046573;28;20033;-42
2023/11/21 12:30:27;;;;;;;11.80;4.72;;;11.10;99.90;;;;;;5045802;28;20109;-40
2023/11/21 12:32:55;;;;;;;8.02;3.60;;;11.20;99.90;;;;;;5045742;28;20060;-39
2023/11/21 12:35:25;;;;;;;6.50;4.15;;;11.20;99.90;;;;;;5046395;28;20025;-42
2023/11/21 12:37:52;;;;;;;10.23;4.25;;;11.20;99.90;;;;;;5046490;28;20022;-42
2023/11/21 12:40:18;;;;;;;8.93;4.78;;;11.10;99.90;;;;;;5045984;28;20093;-40
2023/11/21 12:42:58;;;;;;;11.73;5.10;;;11.10;99.90;;;;;;5045415;28;20029;-44
2023/11/21 12:45:27;;;;;;;14.15;5.38;;;11.10;99.90;;;;;;5044818;28;20033;-39
2023/11/21 12:48:07;;;;;;;12.60;5.10;;;11.20;99.90;;;;;;5045397;28;20030;-41